sensor_id;sensor_type;location;lat;lon;timestamp;P1;durP1;ratioP1;P2;durP2;ratioP2
12869;SDS011;6503;48.572;13.460;2022-10-16T00:01:14;13.20;;;8.63;;
12869;SDS011;6503;48.572;13.460;2022-10-16T00:03:43;18.75;;;9.18;;
12869;SDS011;6503;48.572;13.460;2022-10-16T00:06:10;14.77;;;9.52;;
12869;SDS011;6503;48.572;13.460;2022-10-16T00:08:38;17.33;;;10.25;;
12869;SDS011;6503;48.572;13.460;2022-10-16T00:11:07;17.15;;;9.93;;
12869;SDS011;6503;48.572;13.460;2022-10-16T00:16:04;14.40;;;8.90;;
12869;SDS011;6503;48.572;13.460;2022-10-16T00:18:31;14.98;;;8.70;;
12869;SDS011;6503;48.572;13.460;2022-10-16T00:21:01;14.13;;;8.15;;
12869;SDS011;6503;48.572;13.460;2022-10-16T00:23:29;14.93;;;8.43;;
12869;SDS011;6503;48.572;13.460;2022-10-16T00:25:56;13.43;;;7.63;;
12869;SDS011;6503;48.572;13.460;2022-10-16T00:28:26;12.52;;;7.80;;
12869;SDS011;6503;48.572;13.460;2022-10-16T00:30:53;14.75;;;7.15;;
12869;SDS011;6503;48.572;13.460;2022-10-16T00:33:20;16.45;;;8.18;;
12869;SDS011;6503;48.572;13.460;2022-10-16T00:35:47;14.27;;;8.35;;
12869;SDS011;6503;48.572;13.460;2022-10-16T00:38:14;15.75;;;7.95;;
12869;SDS011;6503;48.572;13.460;2022-10-16T00:40:40;10.52;;;8.10;;
12869;SDS011;6503;48.572;13.460;2022-10-16T00:43:11;11.85;;;7.90;;
12869;SDS011;6503;48.572;13.460;2022-10-16T00:45:41;12.80;;;7.25;;
12869;SDS011;6503;48.572;13.460;2022-10-16T00:48:10;23.65;;;13.52;;
12869;SDS011;6503;48.572;13.460;2022-10-16T00:50:39;11.27;;;7.07;;
12869;SDS011;6503;48.572;13.460;2022-10-16T00:53:08;16.35;;;7.25;;
12869;SDS011;6503;48.572;13.460;2022-10-16T00:55:36;15.20;;;7.72;;
12869;SDS011;6503;48.572;13.460;2022-10-16T00:58:03;12.82;;;7.28;;
12869;SDS011;6503;48.572;13.460;2022-10-16T01:00:29;14.55;;;7.22;;
12869;SDS011;6503;48.572;13.460;2022-10-16T01:02:59;17.88;;;6.78;;
12869;SDS011;6503;48.572;13.460;2022-10-16T01:05:28;13.07;;;7.28;;
12869;SDS011;6503;48.572;13.460;2022-10-16T01:08:01;14.02;;;7.80;;
12869;SDS011;6503;48.572;13.460;2022-10-16T01:10:38;26.80;;;8.70;;
12869;SDS011;6503;48.572;13.460;2022-10-16T01:13:08;19.20;;;9.95;;
12869;SDS011;6503;48.572;13.460;2022-10-16T01:15:37;12.43;;;8.23;;
12869;SDS011;6503;48.572;13.460;2022-10-16T01:18:11;13.02;;;8.23;;
12869;SDS011;6503;48.572;13.460;2022-10-16T01:20:44;11.90;;;8.23;;
12869;SDS011;6503;48.572;13.460;2022-10-16T01:23:21;16.55;;;7.72;;
12869;SDS011;6503;48.572;13.460;2022-10-16T01:25:59;17.88;;;8.50;;
12869;SDS011;6503;48.572;13.460;2022-10-16T01:28:41;14.38;;;8.25;;
12869;SDS011;6503;48.572;13.460;2022-10-16T01:31:13;14.80;;;8.10;;
12869;SDS011;6503;48.572;13.460;2022-10-16T01:33:43;13.38;;;7.25;;
12869;SDS011;6503;48.572;13.460;2022-10-16T01:36:13;12.77;;;6.50;;
12869;SDS011;6503;48.572;13.460;2022-10-16T01:38:41;13.20;;;7.35;;
12869;SDS011;6503;48.572;13.460;2022-10-16T01:41:13;21.60;;;7.63;;
12869;SDS011;6503;48.572;13.460;2022-10-16T01:43:45;23.38;;;9.93;;
12869;SDS011;6503;48.572;13.460;2022-10-16T01:46:16;24.10;;;10.45;;
12869;SDS011;6503;48.572;13.460;2022-10-16T01:48:46;17.15;;;8.82;;
12869;SDS011;6503;48.572;13.460;2022-10-16T01:51:14;21.77;;;8.73;;
12869;SDS011;6503;48.572;13.460;2022-10-16T01:53:43;23.05;;;9.85;;
12869;SDS011;6503;48.572;13.460;2022-10-16T01:56:13;34.35;;;9.75;;
12869;SDS011;6503;48.572;13.460;2022-10-16T01:58:45;28.83;;;9.05;;
12869;SDS011;6503;48.572;13.460;2022-10-16T02:01:16;26.85;;;8.52;;
12869;SDS011;6503;48.572;13.460;2022-10-16T02:03:46;28.90;;;9.35;;
12869;SDS011;6503;48.572;13.460;2022-10-16T02:06:17;31.00;;;9.75;;
12869;SDS011;6503;48.572;13.460;2022-10-16T02:08:44;55.45;;;11.00;;
12869;SDS011;6503;48.572;13.460;2022-10-16T02:11:12;61.85;;;13.02;;
12869;SDS011;6503;48.572;13.460;2022-10-16T02:13:40;39.50;;;10.50;;
12869;SDS011;6503;48.572;13.460;2022-10-16T02:16:12;51.13;;;10.35;;
12869;SDS011;6503;48.572;13.460;2022-10-16T02:18:39;45.30;;;11.00;;
12869;SDS011;6503;48.572;13.460;2022-10-16T02:21:10;51.40;;;10.90;;
12869;SDS011;6503;48.572;13.460;2022-10-16T02:23:43;43.10;;;11.38;;
12869;SDS011;6503;48.572;13.460;2022-10-16T02:26:24;54.17;;;9.68;;
12869;SDS011;6503;48.572;13.460;2022-10-16T02:28:55;36.63;;;9.43;;
12869;SDS011;6503;48.572;13.460;2022-10-16T02:31:28;57.22;;;11.65;;
12869;SDS011;6503;48.572;13.460;2022-10-16T02:33:59;54.35;;;11.07;;
12869;SDS011;6503;48.572;13.460;2022-10-16T02:36:30;47.40;;;11.32;;
12869;SDS011;6503;48.572;13.460;2022-10-16T02:38:58;45.60;;;11.30;;
12869;SDS011;6503;48.572;13.460;2022-10-16T02:41:29;62.22;;;14.20;;
12869;SDS011;6503;48.572;13.460;2022-10-16T02:43:57;63.58;;;12.43;;
12869;SDS011;6503;48.572;13.460;2022-10-16T02:46:24;54.42;;;12.60;;
12869;SDS011;6503;48.572;13.460;2022-10-16T02:48:52;86.72;;;15.90;;
12869;SDS011;6503;48.572;13.460;2022-10-16T02:51:18;67.90;;;13.40;;
12869;SDS011;6503;48.572;13.460;2022-10-16T02:53:45;48.45;;;12.55;;
12869;SDS011;6503;48.572;13.460;2022-10-16T02:56:12;72.80;;;14.05;;
12869;SDS011;6503;48.572;13.460;2022-10-16T02:58:39;77.25;;;14.75;;
12869;SDS011;6503;48.572;13.460;2022-10-16T03:01:05;88.95;;;16.05;;
12869;SDS011;6503;48.572;13.460;2022-10-16T03:03:32;66.05;;;13.38;;
12869;SDS011;6503;48.572;13.460;2022-10-16T03:06:00;70.10;;;14.75;;
12869;SDS011;6503;48.572;13.460;2022-10-16T03:08:27;57.83;;;13.23;;
12869;SDS011;6503;48.572;13.460;2022-10-16T03:10:54;65.68;;;12.98;;
12869;SDS011;6503;48.572;13.460;2022-10-16T03:13:21;46.53;;;12.40;;
12869;SDS011;6503;48.572;13.460;2022-10-16T03:15:48;37.78;;;11.70;;
12869;SDS011;6503;48.572;13.460;2022-10-16T03:18:15;52.80;;;12.90;;
12869;SDS011;6503;48.572;13.460;2022-10-16T03:20:42;60.88;;;14.13;;
12869;SDS011;6503;48.572;13.460;2022-10-16T03:23:10;69.55;;;14.15;;
12869;SDS011;6503;48.572;13.460;2022-10-16T03:25:37;60.75;;;15.00;;
12869;SDS011;6503;48.572;13.460;2022-10-16T03:28:04;91.45;;;15.73;;
12869;SDS011;6503;48.572;13.460;2022-10-16T03:30:31;83.07;;;15.30;;
12869;SDS011;6503;48.572;13.460;2022-10-16T03:32:58;80.55;;;17.92;;
12869;SDS011;6503;48.572;13.460;2022-10-16T03:35:25;76.15;;;17.00;;
12869;SDS011;6503;48.572;13.460;2022-10-16T03:37:51;47.45;;;13.15;;
12869;SDS011;6503;48.572;13.460;2022-10-16T03:40:20;44.03;;;13.73;;
12869;SDS011;6503;48.572;13.460;2022-10-16T03:42:47;42.53;;;11.73;;
12869;SDS011;6503;48.572;13.460;2022-10-16T03:45:13;44.05;;;12.77;;
12869;SDS011;6503;48.572;13.460;2022-10-16T03:47:40;49.63;;;12.15;;
12869;SDS011;6503;48.572;13.460;2022-10-16T03:50:07;34.03;;;11.05;;
12869;SDS011;6503;48.572;13.460;2022-10-16T03:52:36;31.70;;;10.60;;
12869;SDS011;6503;48.572;13.460;2022-10-16T03:55:03;60.00;;;13.57;;
